sensor_id;sensor_type;location;lat;lon;timestamp;P1;durP1;ratioP1;P2;durP2;ratioP2
13327;SDS011;6733;51.044;3.746;2023-10-31T00:00:16;18.47;;;16.57;;
13327;SDS011;6733;51.044;3.746;2023-10-31T00:02:42;17.97;;;15.93;;
13327;SDS011;6733;51.044;3.746;2023-10-31T00:05:08;18.13;;;16.37;;
13327;SDS011;6733;51.044;3.746;2023-10-31T00:07:34;19.97;;;17.53;;
13327;SDS011;6733;51.044;3.746;2023-10-31T00:10:00;18.17;;;16.20;;
13327;SDS011;6733;51.044;3.746;2023-10-31T00:12:26;19.17;;;16.67;;
13327;SDS011;6733;51.044;3.746;2023-10-31T00:14:52;17.80;;;15.93;;
13327;SDS011;6733;51.044;3.746;2023-10-31T00:17:18;17.27;;;15.43;;
13327;SDS011;6733;51.044;3.746;2023-10-31T00:19:44;16.93;;;15.07;;
13327;SDS011;6733;51.044;3.746;2023-10-31T00:22:10;17.77;;;15.80;;
13327;SDS011;6733;51.044;3.746;2023-10-31T00:24:36;18.77;;;15.00;;
13327;SDS011;6733;51.044;3.746;2023-10-31T00:27:02;15.73;;;13.87;;
13327;SDS011;6733;51.044;3.746;2023-10-31T00:29:28;17.37;;;14.23;;
13327;SDS011;6733;51.044;3.746;2023-10-31T00:31:54;15.57;;;13.90;;
13327;SDS011;6733;51.044;3.746;2023-10-31T00:34:20;15.30;;;13.70;;
13327;SDS011;6733;51.044;3.746;2023-10-31T00:36:46;18.03;;;13.50;;
13327;SDS011;6733;51.044;3.746;2023-10-31T00:39:13;13.47;;;11.77;;
13327;SDS011;6733;51.044;3.746;2023-10-31T00:41:39;13.20;;;11.60;;
13327;SDS011;6733;51.044;3.746;2023-10-31T00:44:09;15.70;;;12.67;;
13327;SDS011;6733;51.044;3.746;2023-10-31T00:46:35;13.90;;;12.37;;
13327;SDS011;6733;51.044;3.746;2023-10-31T00:49:01;13.03;;;11.37;;
13327;SDS011;6733;51.044;3.746;2023-10-31T00:51:28;12.60;;;11.33;;
13327;SDS011;6733;51.044;3.746;2023-10-31T00:53:54;12.40;;;11.03;;
13327;SDS011;6733;51.044;3.746;2023-10-31T00:56:20;13.07;;;11.67;;
13327;SDS011;6733;51.044;3.746;2023-10-31T00:58:45;12.67;;;11.43;;
13327;SDS011;6733;51.044;3.746;2023-10-31T01:01:11;11.83;;;10.67;;
13327;SDS011;6733;51.044;3.746;2023-10-31T01:03:37;12.87;;;11.20;;
13327;SDS011;6733;51.044;3.746;2023-10-31T01:06:03;12.03;;;10.83;;
13327;SDS011;6733;51.044;3.746;2023-10-31T01:08:29;13.03;;;11.10;;
13327;SDS011;6733;51.044;3.746;2023-10-31T01:10:56;11.47;;;10.30;;
13327;SDS011;6733;51.044;3.746;2023-10-31T01:13:22;11.77;;;10.63;;
13327;SDS011;6733;51.044;3.746;2023-10-31T01:15:48;14.17;;;11.13;;
13327;SDS011;6733;51.044;3.746;2023-10-31T01:18:14;12.23;;;11.03;;
13327;SDS011;6733;51.044;3.746;2023-10-31T01:20:40;12.80;;;10.60;;
13327;SDS011;6733;51.044;3.746;2023-10-31T01:23:06;11.10;;;9.97;;
13327;SDS011;6733;51.044;3.746;2023-10-31T01:25:32;11.77;;;9.97;;
13327;SDS011;6733;51.044;3.746;2023-10-31T01:27:58;12.20;;;10.30;;
13327;SDS011;6733;51.044;3.746;2023-10-31T01:30:25;11.87;;;10.77;;
13327;SDS011;6733;51.044;3.746;2023-10-31T01:32:51;12.63;;;11.33;;
13327;SDS011;6733;51.044;3.746;2023-10-31T01:35:17;12.20;;;10.70;;
13327;SDS011;6733;51.044;3.746;2023-10-31T01:37:43;12.33;;;11.13;;
13327;SDS011;6733;51.044;3.746;2023-10-31T01:40:12;11.73;;;10.63;;
13327;SDS011;6733;51.044;3.746;2023-10-31T01:42:38;11.57;;;10.37;;
13327;SDS011;6733;51.044;3.746;2023-10-31T01:45:05;13.07;;;11.03;;
13327;SDS011;6733;51.044;3.746;2023-10-31T01:47:32;11.70;;;10.20;;
13327;SDS011;6733;51.044;3.746;2023-10-31T01:49:58;11.63;;;10.27;;
13327;SDS011;6733;51.044;3.746;2023-10-31T01:52:25;12.37;;;10.23;;
13327;SDS011;6733;51.044;3.746;2023-10-31T01:54:51;11.97;;;10.57;;
13327;SDS011;6733;51.044;3.746;2023-10-31T01:57:21;11.57;;;10.17;;
13327;SDS011;6733;51.044;3.746;2023-10-31T01:59:48;11.17;;;10.07;;
13327;SDS011;6733;51.044;3.746;2023-10-31T02:02:14;10.47;;;9.47;;
13327;SDS011;6733;51.044;3.746;2023-10-31T02:04:41;10.63;;;9.63;;
13327;SDS011;6733;51.044;3.746;2023-10-31T02:07:08;9.43;;;8.53;;
13327;SDS011;6733;51.044;3.746;2023-10-31T02:09:34;10.40;;;8.93;;
13327;SDS011;6733;51.044;3.746;2023-10-31T02:12:00;8.90;;;8.00;;
13327;SDS011;6733;51.044;3.746;2023-10-31T02:14:26;10.00;;;7.47;;
13327;SDS011;6733;51.044;3.746;2023-10-31T02:16:52;7.53;;;6.67;;
13327;SDS011;6733;51.044;3.746;2023-10-31T02:19:19;7.83;;;6.77;;
13327;SDS011;6733;51.044;3.746;2023-10-31T02:21:46;6.90;;;5.73;;
13327;SDS011;6733;51.044;3.746;2023-10-31T02:24:12;7.17;;;6.20;;
13327;SDS011;6733;51.044;3.746;2023-10-31T02:26:38;6.43;;;5.67;;
13327;SDS011;6733;51.044;3.746;2023-10-31T02:29:04;6.80;;;5.23;;
13327;SDS011;6733;51.044;3.746;2023-10-31T02:57:57;4.77;;;4.07;;
13327;SDS011;6733;51.044;3.746;2023-10-31T03:00:24;4.90;;;3.90;;
13327;SDS011;6733;51.044;3.746;2023-10-31T03:02:51;4.60;;;3.43;;
13327;SDS011;6733;51.044;3.746;2023-10-31T03:05:17;4.13;;;3.63;;
13327;SDS011;6733;51.044;3.746;2023-10-31T03:07:43;5.13;;;3.83;;
13327;SDS011;6733;51.044;3.746;2023-10-31T03:10:10;5.73;;;4.20;;
13327;SDS011;6733;51.044;3.746;2023-10-31T03:12:36;5.70;;;3.27;;
13327;SDS011;6733;51.044;3.746;2023-10-31T03:15:03;4.60;;;3.53;;
13327;SDS011;6733;51.044;3.746;2023-10-31T03:17:29;5.47;;;4.30;;
13327;SDS011;6733;51.044;3.746;2023-10-31T03:19:55;7.17;;;3.73;;
13327;SDS011;6733;51.044;3.746;2023-10-31T03:22:21;4.80;;;3.80;;
13327;SDS011;6733;51.044;3.746;2023-10-31T03:24:47;4.53;;;4.03;;
13327;SDS011;6733;51.044;3.746;2023-10-31T03:27:13;5.40;;;3.67;;
13327;SDS011;6733;51.044;3.746;2023-10-31T03:29:39;3.63;;;3.33;;
13327;SDS011;6733;51.044;3.746;2023-10-31T03:32:05;6.23;;;3.87;;
13327;SDS011;6733;51.044;3.746;2023-10-31T03:34:31;4.70;;;3.50;;
13327;SDS011;6733;51.044;3.746;2023-10-31T03:36:57;5.30;;;4.00;;
13327;SDS011;6733;51.044;3.746;2023-10-31T03:39:23;4.73;;;3.87;;
13327;SDS011;6733;51.044;3.746;2023-10-31T03:41:49;4.80;;;3.47;;
13327;SDS011;6733;51.044;3.746;2023-10-31T03:44:15;6.57;;;4.50;;
13327;SDS011;6733;51.044;3.746;2023-10-31T03:46:41;5.97;;;4.33;;
13327;SDS011;6733;51.044;3.746;2023-10-31T03:49:07;4.63;;;4.17;;
13327;SDS011;6733;51.044;3.746;2023-10-31T03:51:33;4.97;;;4.30;;
13327;SDS011;6733;51.044;3.746;2023-10-31T03:54:00;5.63;;;4.20;;
13327;SDS011;6733;51.044;3.746;2023-10-31T03:56:25;4.50;;;4.10;;
13327;SDS011;6733;51.044;3.746;2023-10-31T03:58:52;4.77;;;4.20;;
13327;SDS011;6733;51.044;3.746;2023-10-31T04:01:18;5.30;;;4.73;;
13327;SDS011;6733;51.044;3.746;2023-10-31T04:03:44;6.60;;;4.90;;
13327;SDS011;6733;51.044;3.746;2023-10-31T04:06:10;4.83;;;4.43;;
13327;SDS011;6733;51.044;3.746;2023-10-31T04:08:36;6.33;;;5.30;;
13327;SDS011;6733;51.044;3.746;2023-10-31T04:11:02;5.50;;;5.00;;
13327;SDS011;6733;51.044;3.746;2023-10-31T04:13:28;5.37;;;4.87;;
13327;SDS011;6733;51.044;3.746;2023-10-31T04:15:54;5.33;;;4.83;;
13327;SDS011;6733;51.044;3.746;2023-10-31T04:18:20;5.70;;;5.17;;
13327;SDS011;6733;51.044;3.746;2023-10-31T04:20:46;5.77;;;5.27;;
13327;SDS011;6733;51.044;3.746;2023-10-31T04:23:12;5.83;;;5.20;;
13327;SDS011;6733;51.044;3.746;2023-10-31T04:25:38;6.10;;;5.40;;
13327;SDS011;6733;51.044;3.746;2023-10-31T04:28:04;6.17;;;5.60;;
13327;SDS011;6733;51.044;3.746;2023-10-31T04:30:30;5.97;;;5.47;;
13327;SDS011;6733;51.044;3.746;2023-10-31T04:32:56;5.60;;;5.10;;
13327;SDS011;6733;51.044;3.746;2023-10-31T04:35:22;6.10;;;5.37;;
13327;SDS011;6733;51.044;3.746;2023-10-31T04:37:48;6.67;;;5.67;;
13327;SDS011;6733;51.044;3.746;2023-10-31T04:40:14;7.17;;;6.57;;
13327;SDS011;6733;51.044;3.746;2023-10-31T04:42:40;7.30;;;6.40;;
13327;SDS011;6733;51.044;3.746;2023-10-31T04:45:07;6.30;;;5.70;;
13327;SDS011;6733;51.044;3.746;2023-10-31T04:47:34;7.30;;;6.60;;
13327;SDS011;6733;51.044;3.746;2023-10-31T04:50:00;7.47;;;6.77;;
13327;SDS011;6733;51.044;3.746;2023-10-31T04:52:26;8.07;;;7.27;;
13327;SDS011;6733;51.044;3.746;2023-10-31T04:54:52;8.73;;;7.07;;
13327;SDS011;6733;51.044;3.746;2023-10-31T04:57:19;9.80;;;7.93;;
13327;SDS011;6733;51.044;3.746;2023-10-31T04:59:45;11.17;;;7.63;;
13327;SDS011;6733;51.044;3.746;2023-10-31T05:02:11;8.93;;;8.03;;
13327;SDS011;6733;51.044;3.746;2023-10-31T05:04:38;8.93;;;8.03;;
13327;SDS011;6733;51.044;3.746;2023-10-31T05:07:05;12.47;;;9.10;;
13327;SDS011;6733;51.044;3.746;2023-10-31T05:09:31;12.47;;;9.13;;
13327;SDS011;6733;51.044;3.746;2023-10-31T05:11:57;9.60;;;8.70;;
13327;SDS011;6733;51.044;3.746;2023-10-31T05:14:23;11.20;;;9.90;;
13327;SDS011;6733;51.044;3.746;2023-10-31T05:16:49;9.90;;;9.00;;
13327;SDS011;6733;51.044;3.746;2023-10-31T05:19:15;12.70;;;9.50;;
13327;SDS011;6733;51.044;3.746;2023-10-31T05:21:42;10.60;;;9.60;;
13327;SDS011;6733;51.044;3.746;2023-10-31T05:24:08;11.50;;;10.30;;
13327;SDS011;6733;51.044;3.746;2023-10-31T05:26:34;10.83;;;9.83;;
13327;SDS011;6733;51.044;3.746;2023-10-31T05:29:00;11.80;;;10.60;;
13327;SDS011;6733;51.044;3.746;2023-10-31T05:31:26;11.57;;;10.37;;
13327;SDS011;6733;51.044;3.746;2023-10-31T05:33:53;13.73;;;11.00;;
13327;SDS011;6733;51.044;3.746;2023-10-31T05:36:19;12.90;;;11.67;;
13327;SDS011;6733;51.044;3.746;2023-10-31T05:38:47;12.97;;;11.77;;
13327;SDS011;6733;51.044;3.746;2023-10-31T05:41:14;16.27;;;12.50;;
13327;SDS011;6733;51.044;3.746;2023-10-31T05:43:41;14.27;;;12.40;;
13327;SDS011;6733;51.044;3.746;2023-10-31T05:46:07;13.70;;;12.40;;
13327;SDS011;6733;51.044;3.746;2023-10-31T05:48:38;15.03;;;13.57;;
13327;SDS011;6733;51.044;3.746;2023-10-31T05:51:10;13.67;;;12.37;;
13327;SDS011;6733;51.044;3.746;2023-10-31T05:53:40;15.03;;;12.40;;
13327;SDS011;6733;51.044;3.746;2023-10-31T05:56:08;15.17;;;13.67;;
13327;SDS011;6733;51.044;3.746;2023-10-31T05:58:34;15.60;;;14.00;;
13327;SDS011;6733;51.044;3.746;2023-10-31T06:01:02;16.67;;;14.93;;
13327;SDS011;6733;51.044;3.746;2023-10-31T06:03:28;16.87;;;15.17;;
13327;SDS011;6733;51.044;3.746;2023-10-31T06:05:54;16.77;;;15.17;;
13327;SDS011;6733;51.044;3.746;2023-10-31T06:08:21;15.57;;;14.00;;
13327;SDS011;6733;51.044;3.746;2023-10-31T06:10:52;16.63;;;14.93;;
13327;SDS011;6733;51.044;3.746;2023-10-31T06:13:18;18.03;;;15.23;;
13327;SDS011;6733;51.044;3.746;2023-10-31T06:15:45;17.37;;;15.53;;
13327;SDS011;6733;51.044;3.746;2023-10-31T06:18:11;23.33;;;15.80;;
13327;SDS011;6733;51.044;3.746;2023-10-31T06:20:38;17.07;;;15.37;;
13327;SDS011;6733;51.044;3.746;2023-10-31T06:23:05;17.70;;;15.80;;
13327;SDS011;6733;51.044;3.746;2023-10-31T06:25:31;18.30;;;16.33;;
13327;SDS011;6733;51.044;3.746;2023-10-31T06:27:57;17.30;;;15.50;;
13327;SDS011;6733;51.044;3.746;2023-10-31T06:30:23;17.20;;;15.40;;
13327;SDS011;6733;51.044;3.746;2023-10-31T06:32:53;16.90;;;15.03;;
13327;SDS011;6733;51.044;3.746;2023-10-31T06:35:19;16.40;;;14.77;;
13327;SDS011;6733;51.044;3.746;2023-10-31T06:37:45;16.70;;;14.70;;
13327;SDS011;6733;51.044;3.746;2023-10-31T06:40:12;16.40;;;14.73;;
13327;SDS011;6733;51.044;3.746;2023-10-31T06:42:38;15.93;;;14.27;;
13327;SDS011;6733;51.044;3.746;2023-10-31T06:45:04;15.57;;;13.97;;
13327;SDS011;6733;51.044;3.746;2023-10-31T06:47:31;17.23;;;15.40;;
13327;SDS011;6733;51.044;3.746;2023-10-31T06:49:57;16.17;;;14.47;;
13327;SDS011;6733;51.044;3.746;2023-10-31T06:52:25;15.67;;;13.47;;
13327;SDS011;6733;51.044;3.746;2023-10-31T06:54:51;15.47;;;13.87;;
13327;SDS011;6733;51.044;3.746;2023-10-31T06:57:17;15.00;;;13.47;;
13327;SDS011;6733;51.044;3.746;2023-10-31T06:59:43;15.37;;;13.77;;
13327;SDS011;6733;51.044;3.746;2023-10-31T07:02:10;14.70;;;13.07;;
13327;SDS011;6733;51.044;3.746;2023-10-31T07:04:36;15.47;;;13.97;;
13327;SDS011;6733;51.044;3.746;2023-10-31T07:07:02;15.63;;;13.70;;
13327;SDS011;6733;51.044;3.746;2023-10-31T07:09:28;16.33;;;14.73;;
13327;SDS011;6733;51.044;3.746;2023-10-31T07:11:54;14.83;;;13.33;;
13327;SDS011;6733;51.044;3.746;2023-10-31T07:14:20;12.63;;;11.33;;
13327;SDS011;6733;51.044;3.746;2023-10-31T07:16:47;14.93;;;13.43;;
13327;SDS011;6733;51.044;3.746;2023-10-31T07:19:14;16.30;;;14.60;;
13327;SDS011;6733;51.044;3.746;2023-10-31T07:21:40;15.67;;;13.53;;
13327;SDS011;6733;51.044;3.746;2023-10-31T07:24:09;14.07;;;12.67;;
13327;SDS011;6733;51.044;3.746;2023-10-31T07:26:46;15.37;;;13.90;;
13327;SDS011;6733;51.044;3.746;2023-10-31T07:29:13;18.40;;;16.60;;
13327;SDS011;6733;51.044;3.746;2023-10-31T07:31:39;17.17;;;15.47;;
13327;SDS011;6733;51.044;3.746;2023-10-31T07:34:06;18.17;;;14.03;;
13327;SDS011;6733;51.044;3.746;2023-10-31T07:36:32;17.87;;;15.90;;
13327;SDS011;6733;51.044;3.746;2023-10-31T07:39:00;13.43;;;11.63;;
13327;SDS011;6733;51.044;3.746;2023-10-31T07:41:28;18.33;;;16.43;;
13327;SDS011;6733;51.044;3.746;2023-10-31T07:43:55;17.57;;;15.87;;
13327;SDS011;6733;51.044;3.746;2023-10-31T07:46:21;19.20;;;17.30;;
13327;SDS011;6733;51.044;3.746;2023-10-31T07:48:48;16.37;;;14.87;;
13327;SDS011;6733;51.044;3.746;2023-10-31T07:51:15;17.60;;;15.90;;
13327;SDS011;6733;51.044;3.746;2023-10-31T07:53:41;13.60;;;12.30;;
13327;SDS011;6733;51.044;3.746;2023-10-31T07:56:17;16.27;;;14.67;;
13327;SDS011;6733;51.044;3.746;2023-10-31T07:58:44;14.93;;;13.40;;
13327;SDS011;6733;51.044;3.746;2023-10-31T08:01:10;14.87;;;13.37;;
13327;SDS011;6733;51.044;3.746;2023-10-31T08:03:36;13.57;;;12.23;;
13327;SDS011;6733;51.044;3.746;2023-10-31T08:06:04;14.90;;;12.37;;
13327;SDS011;6733;51.044;3.746;2023-10-31T08:08:31;14.03;;;12.23;;
13327;SDS011;6733;51.044;3.746;2023-10-31T08:10:57;13.73;;;11.60;;
13327;SDS011;6733;51.044;3.746;2023-10-31T08:13:24;13.73;;;12.40;;
13327;SDS011;6733;51.044;3.746;2023-10-31T08:15:50;12.73;;;10.60;;
13327;SDS011;6733;51.044;3.746;2023-10-31T08:18:17;12.27;;;10.97;;
13327;SDS011;6733;51.044;3.746;2023-10-31T08:20:44;13.60;;;11.27;;
13327;SDS011;6733;51.044;3.746;2023-10-31T08:23:15;11.83;;;10.63;;
13327;SDS011;6733;51.044;3.746;2023-10-31T08:25:41;12.20;;;11.10;;
13327;SDS011;6733;51.044;3.746;2023-10-31T08:28:07;12.10;;;9.93;;
13327;SDS011;6733;51.044;3.746;2023-10-31T08:30:34;12.37;;;10.83;;
13327;SDS011;6733;51.044;3.746;2023-10-31T08:33:00;11.00;;;9.37;;
13327;SDS011;6733;51.044;3.746;2023-10-31T08:35:27;13.47;;;10.43;;
13327;SDS011;6733;51.044;3.746;2023-10-31T08:37:53;14.20;;;11.00;;
13327;SDS011;6733;51.044;3.746;2023-10-31T08:40:19;17.13;;;11.17;;
13327;SDS011;6733;51.044;3.746;2023-10-31T08:42:45;12.97;;;9.73;;
13327;SDS011;6733;51.044;3.746;2023-10-31T08:45:11;11.73;;;9.63;;
13327;SDS011;6733;51.044;3.746;2023-10-31T08:47:38;10.90;;;9.30;;
13327;SDS011;6733;51.044;3.746;2023-10-31T08:50:04;14.20;;;10.37;;
13327;SDS011;6733;51.044;3.746;2023-10-31T08:52:32;12.87;;;10.87;;
13327;SDS011;6733;51.044;3.746;2023-10-31T08:54:58;12.27;;;10.10;;
13327;SDS011;6733;51.044;3.746;2023-10-31T08:57:24;13.00;;;10.07;;
13327;SDS011;6733;51.044;3.746;2023-10-31T08:59:51;12.10;;;9.87;;
13327;SDS011;6733;51.044;3.746;2023-10-31T09:02:17;11.97;;;10.70;;
13327;SDS011;6733;51.044;3.746;2023-10-31T09:04:43;12.17;;;10.37;;
13327;SDS011;6733;51.044;3.746;2023-10-31T09:07:09;15.77;;;10.60;;
13327;SDS011;6733;51.044;3.746;2023-10-31T09:09:35;12.23;;;10.70;;
13327;SDS011;6733;51.044;3.746;2023-10-31T09:12:01;14.03;;;10.90;;
13327;SDS011;6733;51.044;3.746;2023-10-31T09:14:27;9.83;;;8.87;;
13327;SDS011;6733;51.044;3.746;2023-10-31T09:16:53;11.37;;;9.57;;
13327;SDS011;6733;51.044;3.746;2023-10-31T09:19:19;12.23;;;9.87;;
13327;SDS011;6733;51.044;3.746;2023-10-31T09:21:45;13.13;;;10.50;;
13327;SDS011;6733;51.044;3.746;2023-10-31T09:24:11;14.63;;;9.13;;
13327;SDS011;6733;51.044;3.746;2023-10-31T09:26:41;10.63;;;9.57;;
13327;SDS011;6733;51.044;3.746;2023-10-31T09:29:09;8.53;;;7.70;;
13327;SDS011;6733;51.044;3.746;2023-10-31T09:31:36;8.70;;;7.80;;
13327;SDS011;6733;51.044;3.746;2023-10-31T09:34:02;8.50;;;7.57;;
13327;SDS011;6733;51.044;3.746;2023-10-31T09:36:32;10.63;;;7.53;;
13327;SDS011;6733;51.044;3.746;2023-10-31T09:39:02;9.77;;;7.93;;
13327;SDS011;6733;51.044;3.746;2023-10-31T09:41:29;9.17;;;7.70;;
13327;SDS011;6733;51.044;3.746;2023-10-31T09:43:57;8.23;;;7.17;;
13327;SDS011;6733;51.044;3.746;2023-10-31T09:46:24;10.60;;;7.70;;
13327;SDS011;6733;51.044;3.746;2023-10-31T09:48:50;7.60;;;6.80;;
13327;SDS011;6733;51.044;3.746;2023-10-31T09:51:17;11.30;;;7.30;;
13327;SDS011;6733;51.044;3.746;2023-10-31T09:53:44;10.93;;;7.17;;
13327;SDS011;6733;51.044;3.746;2023-10-31T09:56:11;9.83;;;6.90;;
13327;SDS011;6733;51.044;3.746;2023-10-31T09:58:37;11.47;;;6.47;;
13327;SDS011;6733;51.044;3.746;2023-10-31T10:01:05;9.57;;;7.10;;
13327;SDS011;6733;51.044;3.746;2023-10-31T10:03:31;7.43;;;6.10;;
13327;SDS011;6733;51.044;3.746;2023-10-31T10:05:57;7.60;;;6.57;;
13327;SDS011;6733;51.044;3.746;2023-10-31T10:08:24;10.30;;;6.37;;
13327;SDS011;6733;51.044;3.746;2023-10-31T10:10:50;8.87;;;6.33;;
13327;SDS011;6733;51.044;3.746;2023-10-31T10:13:22;9.23;;;6.80;;
13327;SDS011;6733;51.044;3.746;2023-10-31T10:15:50;6.67;;;6.07;;
13327;SDS011;6733;51.044;3.746;2023-10-31T10:18:33;8.57;;;6.53;;
13327;SDS011;6733;51.044;3.746;2023-10-31T10:21:05;12.20;;;6.50;;
13327;SDS011;6733;51.044;3.746;2023-10-31T10:23:32;9.37;;;6.10;;
13327;SDS011;6733;51.044;3.746;2023-10-31T10:25:59;9.77;;;6.67;;
13327;SDS011;6733;51.044;3.746;2023-10-31T10:28:27;9.37;;;6.50;;
13327;SDS011;6733;51.044;3.746;2023-10-31T10:30:58;11.43;;;7.07;;
13327;SDS011;6733;51.044;3.746;2023-10-31T10:33:24;9.53;;;6.63;;
13327;SDS011;6733;51.044;3.746;2023-10-31T10:35:50;10.60;;;6.40;;
13327;SDS011;6733;51.044;3.746;2023-10-31T10:38:17;13.57;;;6.57;;
13327;SDS011;6733;51.044;3.746;2023-10-31T10:40:47;9.53;;;6.43;;
13327;SDS011;6733;51.044;3.746;2023-10-31T10:43:24;9.57;;;5.47;;
13327;SDS011;6733;51.044;3.746;2023-10-31T10:45:53;6.40;;;5.77;;
13327;SDS011;6733;51.044;3.746;2023-10-31T10:48:24;10.43;;;5.97;;
13327;SDS011;6733;51.044;3.746;2023-10-31T10:50:52;9.53;;;6.07;;
13327;SDS011;6733;51.044;3.746;2023-10-31T10:53:25;8.50;;;5.70;;
13327;SDS011;6733;51.044;3.746;2023-10-31T10:55:57;8.37;;;6.17;;
13327;SDS011;6733;51.044;3.746;2023-10-31T10:58:37;10.03;;;7.07;;
13327;SDS011;6733;51.044;3.746;2023-10-31T11:01:16;6.70;;;6.03;;
13327;SDS011;6733;51.044;3.746;2023-10-31T11:03:44;12.43;;;6.80;;
13327;SDS011;6733;51.044;3.746;2023-10-31T11:06:11;11.17;;;6.97;;
13327;SDS011;6733;51.044;3.746;2023-10-31T11:08:39;12.97;;;7.07;;
13327;SDS011;6733;51.044;3.746;2023-10-31T11:11:06;9.30;;;7.43;;
13327;SDS011;6733;51.044;3.746;2023-10-31T11:13:32;9.43;;;7.67;;
13327;SDS011;6733;51.044;3.746;2023-10-31T11:15:59;9.93;;;8.03;;
13327;SDS011;6733;51.044;3.746;2023-10-31T11:18:31;10.73;;;7.13;;
13327;SDS011;6733;51.044;3.746;2023-10-31T11:20:58;13.83;;;7.53;;
13327;SDS011;6733;51.044;3.746;2023-10-31T11:23:24;9.77;;;7.30;;
13327;SDS011;6733;51.044;3.746;2023-10-31T11:25:50;9.30;;;7.40;;
13327;SDS011;6733;51.044;3.746;2023-10-31T11:28:20;9.13;;;7.47;;
13327;SDS011;6733;51.044;3.746;2023-10-31T11:30:49;7.47;;;6.67;;
13327;SDS011;6733;51.044;3.746;2023-10-31T11:33:18;10.03;;;7.33;;
13327;SDS011;6733;51.044;3.746;2023-10-31T11:35:50;7.47;;;6.77;;
13327;SDS011;6733;51.044;3.746;2023-10-31T11:38:17;7.10;;;6.50;;
13327;SDS011;6733;51.044;3.746;2023-10-31T11:40:59;10.03;;;7.33;;
13327;SDS011;6733;51.044;3.746;2023-10-31T11:46:05;9.27;;;8.07;;
13327;SDS011;6733;51.044;3.746;2023-10-31T11:48:47;8.10;;;7.23;;
13327;SDS011;6733;51.044;3.746;2023-10-31T11:51:15;8.97;;;7.60;;
13327;SDS011;6733;51.044;3.746;2023-10-31T11:53:41;8.07;;;6.93;;
13327;SDS011;6733;51.044;3.746;2023-10-31T11:56:09;9.30;;;7.83;;
13327;SDS011;6733;51.044;3.746;2023-10-31T11:58:37;8.60;;;7.70;;
13327;SDS011;6733;51.044;3.746;2023-10-31T12:01:04;9.23;;;8.33;;
13327;SDS011;6733;51.044;3.746;2023-10-31T12:03:38;9.83;;;8.93;;
13327;SDS011;6733;51.044;3.746;2023-10-31T12:06:06;11.40;;;9.20;;
13327;SDS011;6733;51.044;3.746;2023-10-31T12:08:35;10.97;;;8.33;;
13327;SDS011;6733;51.044;3.746;2023-10-31T12:11:09;11.17;;;8.87;;
13327;SDS011;6733;51.044;3.746;2023-10-31T12:13:37;15.83;;;10.20;;
13327;SDS011;6733;51.044;3.746;2023-10-31T12:16:05;11.60;;;9.40;;
13327;SDS011;6733;51.044;3.746;2023-10-31T12:18:35;10.80;;;8.97;;
13327;SDS011;6733;51.044;3.746;2023-10-31T12:21:02;11.33;;;9.30;;
13327;SDS011;6733;51.044;3.746;2023-10-31T12:23:28;14.50;;;10.73;;
13327;SDS011;6733;51.044;3.746;2023-10-31T12:25:54;13.57;;;10.23;;
13327;SDS011;6733;51.044;3.746;2023-10-31T12:28:22;13.90;;;10.33;;
13327;SDS011;6733;51.044;3.746;2023-10-31T12:30:50;11.33;;;10.13;;
13327;SDS011;6733;51.044;3.746;2023-10-31T12:33:20;10.97;;;9.93;;
13327;SDS011;6733;51.044;3.746;2023-10-31T12:35:48;12.93;;;9.33;;
13327;SDS011;6733;51.044;3.746;2023-10-31T12:38:14;11.30;;;10.10;;
13327;SDS011;6733;51.044;3.746;2023-10-31T12:40:42;11.30;;;10.17;;
13327;SDS011;6733;51.044;3.746;2023-10-31T12:43:09;14.23;;;10.77;;
13327;SDS011;6733;51.044;3.746;2023-10-31T12:45:36;12.47;;;9.40;;
13327;SDS011;6733;51.044;3.746;2023-10-31T12:48:04;12.90;;;9.97;;
13327;SDS011;6733;51.044;3.746;2023-10-31T12:50:32;11.87;;;9.60;;
13327;SDS011;6733;51.044;3.746;2023-10-31T12:52:59;10.63;;;8.40;;
13327;SDS011;6733;51.044;3.746;2023-10-31T12:55:27;11.30;;;8.60;;
13327;SDS011;6733;51.044;3.746;2023-10-31T12:57:54;9.10;;;8.10;;
13327;SDS011;6733;51.044;3.746;2023-10-31T13:00:22;10.97;;;9.07;;
13327;SDS011;6733;51.044;3.746;2023-10-31T13:03:13;10.30;;;7.83;;
13327;SDS011;6733;51.044;3.746;2023-10-31T13:05:40;7.40;;;6.77;;
13327;SDS011;6733;51.044;3.746;2023-10-31T13:08:13;10.70;;;6.70;;
13327;SDS011;6733;51.044;3.746;2023-10-31T13:10:40;7.17;;;6.37;;
13327;SDS011;6733;51.044;3.746;2023-10-31T13:13:08;7.40;;;6.53;;
13327;SDS011;6733;51.044;3.746;2023-10-31T13:15:34;7.37;;;6.60;;
13327;SDS011;6733;51.044;3.746;2023-10-31T13:18:02;10.33;;;6.27;;
13327;SDS011;6733;51.044;3.746;2023-10-31T13:20:28;7.03;;;6.33;;
13327;SDS011;6733;51.044;3.746;2023-10-31T13:22:55;7.03;;;6.33;;
13327;SDS011;6733;51.044;3.746;2023-10-31T13:25:21;8.07;;;6.83;;
13327;SDS011;6733;51.044;3.746;2023-10-31T13:27:47;8.17;;;6.60;;
13327;SDS011;6733;51.044;3.746;2023-10-31T13:30:16;8.10;;;6.07;;
13327;SDS011;6733;51.044;3.746;2023-10-31T13:32:43;7.80;;;6.47;;
13327;SDS011;6733;51.044;3.746;2023-10-31T13:35:10;6.30;;;5.63;;
13327;SDS011;6733;51.044;3.746;2023-10-31T13:37:36;6.40;;;5.10;;
13327;SDS011;6733;51.044;3.746;2023-10-31T13:40:03;7.30;;;5.43;;
13327;SDS011;6733;51.044;3.746;2023-10-31T13:42:29;6.63;;;5.20;;
13327;SDS011;6733;51.044;3.746;2023-10-31T13:44:56;7.07;;;4.53;;
13327;SDS011;6733;51.044;3.746;2023-10-31T13:47:22;7.40;;;5.07;;
13327;SDS011;6733;51.044;3.746;2023-10-31T13:49:48;5.93;;;4.03;;
13327;SDS011;6733;51.044;3.746;2023-10-31T13:52:14;8.40;;;4.37;;
13327;SDS011;6733;51.044;3.746;2023-10-31T13:54:41;6.20;;;4.60;;
13327;SDS011;6733;51.044;3.746;2023-10-31T13:57:07;6.47;;;4.07;;
13327;SDS011;6733;51.044;3.746;2023-10-31T13:59:33;5.50;;;3.90;;
13327;SDS011;6733;51.044;3.746;2023-10-31T14:02:00;5.17;;;3.47;;
13327;SDS011;6733;51.044;3.746;2023-10-31T14:04:26;5.00;;;3.40;;
13327;SDS011;6733;51.044;3.746;2023-10-31T14:06:54;6.73;;;3.43;;
13327;SDS011;6733;51.044;3.746;2023-10-31T14:09:20;7.97;;;3.20;;
13327;SDS011;6733;51.044;3.746;2023-10-31T14:11:46;6.67;;;3.10;;
13327;SDS011;6733;51.044;3.746;2023-10-31T14:14:13;5.00;;;3.20;;
13327;SDS011;6733;51.044;3.746;2023-10-31T14:16:40;7.13;;;3.50;;
13327;SDS011;6733;51.044;3.746;2023-10-31T14:19:06;5.20;;;3.37;;
13327;SDS011;6733;51.044;3.746;2023-10-31T14:21:33;7.03;;;3.37;;
13327;SDS011;6733;51.044;3.746;2023-10-31T14:24:00;3.83;;;3.13;;
13327;SDS011;6733;51.044;3.746;2023-10-31T14:26:29;4.40;;;3.00;;
13327;SDS011;6733;51.044;3.746;2023-10-31T14:28:55;6.77;;;3.10;;
13327;SDS011;6733;51.044;3.746;2023-10-31T14:31:22;6.43;;;3.47;;
13327;SDS011;6733;51.044;3.746;2023-10-31T14:33:48;6.63;;;3.30;;
13327;SDS011;6733;51.044;3.746;2023-10-31T14:36:14;5.97;;;3.63;;
13327;SDS011;6733;51.044;3.746;2023-10-31T14:38:41;6.37;;;3.67;;
13327;SDS011;6733;51.044;3.746;2023-10-31T14:41:07;5.30;;;4.00;;
13327;SDS011;6733;51.044;3.746;2023-10-31T14:43:34;8.83;;;3.97;;
13327;SDS011;6733;51.044;3.746;2023-10-31T14:46:01;8.93;;;4.00;;
13327;SDS011;6733;51.044;3.746;2023-10-31T14:48:27;6.07;;;4.00;;
13327;SDS011;6733;51.044;3.746;2023-10-31T14:50:55;6.83;;;4.00;;
13327;SDS011;6733;51.044;3.746;2023-10-31T14:53:22;7.20;;;3.93;;
13327;SDS011;6733;51.044;3.746;2023-10-31T14:55:48;8.53;;;3.97;;
13327;SDS011;6733;51.044;3.746;2023-10-31T14:58:14;8.80;;;4.00;;
13327;SDS011;6733;51.044;3.746;2023-10-31T15:00:41;4.80;;;3.93;;
13327;SDS011;6733;51.044;3.746;2023-10-31T15:03:07;6.37;;;3.60;;
13327;SDS011;6733;51.044;3.746;2023-10-31T15:05:33;5.33;;;3.80;;
13327;SDS011;6733;51.044;3.746;2023-10-31T15:07:59;9.10;;;4.03;;
13327;SDS011;6733;51.044;3.746;2023-10-31T15:10:26;9.37;;;4.10;;
13327;SDS011;6733;51.044;3.746;2023-10-31T15:12:55;8.60;;;3.40;;
13327;SDS011;6733;51.044;3.746;2023-10-31T15:15:21;4.97;;;3.47;;